Date,TemperatureHighF,TemperatureAvgF,TemperatureLowF,DewpointHighF,DewpointAvgF,DewpointLowF,HumidityHigh,HumidityAvg,HumidityLow,PressureMaxIn,PressureMinIn,WindSpeedMaxMPH,WindSpeedAvgMPH,GustSpeedMaxMPH,PrecipitationSumIn
2013-1-1,61.3,60.8,60.6,-99.9,-99.9,-99.9,0,0,100,29.71,29.69,0,-999,0,0.00
2013-1-4,68.3,64.9,62.5,-99.9,-99.9,-99.9,0,0,100,29.80,29.75,0,-999,0,0.00
2013-1-5,62.4,60.8,60.2,-99.9,-99.9,-99.9,0,0,100,30.17,29.79,0,-999,0,0.00
2013-1-6,60.9,60.7,60.4,-99.9,-99.9,-99.9,0,0,100,30.14,29.84,0,-999,0,0.00
2013-1-7,68.5,65.0,60.4,-99.9,-99.9,-99.9,0,0,100,30.32,29.87,0,-999,0,0.00
2013-1-8,68.6,65.7,60.6,-99.9,-99.9,-99.9,0,0,100,30.29,30.19,0,-999,0,0.00
2013-1-9,68.7,66.2,61.7,-99.9,-99.9,-99.9,0,0,100,30.30,29.92,0,-999,0,0.00
2013-1-10,69.5,67.1,63.6,-99.9,-99.9,-99.9,0,0,100,30.42,29.97,0,-999,0,0.00
2013-1-11,69.6,66.9,62.6,-99.9,-99.9,-99.9,0,0,100,30.42,30.11,0,-999,0,0.00
2013-1-12,64.5,62.7,62.1,-99.9,-99.9,-99.9,0,0,100,30.14,30.02,0,-999,0,0.00
2013-1-13,62.4,62.1,61.8,-99.9,-99.9,-99.9,0,0,100,30.08,29.93,0,-999,0,0.00
2013-1-14,69.9,67.3,62.3,-99.9,-99.9,-99.9,0,0,100,30.16,29.85,0,-999,0,0.00
2013-1-15,69.8,67.8,64.8,-99.9,-99.9,-99.9,0,0,100,30.19,30.10,0,-999,0,0.00
2013-1-16,69.6,67.4,64.0,-99.9,-99.9,-99.9,0,0,100,30.13,29.63,0,-999,0,0.00
2013-1-17,69.9,67.3,63.7,-99.9,-99.9,-99.9,0,0,100,29.97,29.76,0,-999,0,0.00
2013-1-18,69.5,66.6,62.0,-99.9,-99.9,-99.9,0,0,100,30.39,29.91,0,-999,0,0.00
2013-1-19,62.0,60.7,60.2,-99.9,-99.9,-99.9,0,0,100,30.34,29.85,0,-999,0,0.00
2013-1-20,61.6,61.1,60.4,-99.9,-99.9,-99.9,0,0,100,29.86,29.50,0,-999,0,0.00
2013-1-21,61.2,60.6,60.2,-99.9,-99.9,-99.9,0,0,100,30.02,29.67,0,-999,0,0.00
2013-1-22,68.5,65.1,60.3,-99.9,-99.9,-99.9,0,0,100,29.98,29.63,0,-999,0,0.00
2013-1-23,68.5,64.8,59.9,-99.9,-99.9,-99.9,0,0,100,30.06,29.96,0,-999,0,0.00
2013-1-24,68.3,64.5,59.7,-99.9,-99.9,-99.9,0,0,100,30.13,29.94,0,-999,0,0.00
2013-1-25,68.1,64.5,59.5,-99.9,-99.9,-99.9,0,0,100,30.21,29.94,0,-999,0,0.00
2013-1-26,60.4,59.8,59.4,-99.9,-99.9,-99.9,0,0,100,30.12,29.87,0,-999,0,0.00
2013-1-27,59.7,59.5,58.7,-99.9,-99.9,-99.9,0,0,100,30.37,30.12,0,-999,0,0.00
2013-1-28,68.2,64.5,59.5,-99.9,-99.9,-99.9,0,0,100,30.36,29.89,0,-999,0,0.00
2013-1-29,68.5,65.4,60.1,-99.9,-99.9,-99.9,0,0,100,30.10,29.88,0,-999,0,0.00
2013-1-30,70.3,67.3,61.8,-99.9,-99.9,-99.9,0,0,100,30.08,29.45,0,-999,0,0.00
2013-1-31,67.5,67.2,66.9,-99.9,-99.9,-99.9,0,0,100,29.46,29.15,0,-999,0,0.00
2013-2-11,67.1,64.6,60.6,-99.9,-99.9,-99.9,0,0,100,29.80,29.51,0,-999,0,0.00
2013-2-12,68.1,64.9,59.4,-99.9,-99.9,-99.9,0,0,100,29.80,29.51,0,-999,0,0.00
2013-2-13,68.0,65.2,60.3,-99.9,-99.9,-99.9,0,0,100,29.79,29.55,0,-999,0,0.00
2013-2-14,69.0,65.8,60.6,-99.9,-99.9,-99.9,0,0,100,29.93,29.58,0,-999,0,0.00
2013-2-15,69.2,66.3,61.3,-99.9,-99.9,-99.9,0,0,100,29.96,29.85,0,-999,0,0.00
2013-2-16,63.7,61.2,60.4,-99.9,-99.9,-99.9,0,0,100,29.86,29.53,0,-999,0,0.00
2013-2-17,60.9,60.4,60.1,-99.9,-99.9,-99.9,0,0,100,29.57,29.23,0,-999,0,0.00
2013-2-18,67.2,64.0,60.0,-99.9,-99.9,-99.9,0,0,100,30.08,29.57,0,-999,0,0.00
2013-2-19,68.8,65.4,60.2,-99.9,-99.9,-99.9,0,0,100,30.09,29.49,0,-999,0,0.00
2013-2-20,69.3,66.3,61.9,-99.9,-99.9,-99.9,0,0,100,29.71,29.47,0,-999,0,0.00
2013-2-21,69.0,65.7,60.9,-99.9,-99.9,-99.9,0,0,100,30.04,29.68,0,-999,0,0.00
2013-2-22,69.0,65.7,60.8,-99.9,-99.9,-99.9,0,0,100,30.27,30.02,0,-999,0,0.00
2013-2-23,67.8,64.8,60.9,-99.9,-99.9,-99.9,0,0,100,30.24,29.74,0,-999,0,0.00
2013-2-24,68.0,64.7,61.6,-99.9,-99.9,-99.9,0,0,100,29.76,29.49,0,-999,0,0.00
2013-2-25,69.3,65.9,60.8,-99.9,-99.9,-99.9,0,0,100,30.15,29.75,0,-999,0,0.00
2013-2-26,69.3,66.4,61.2,-99.9,-99.9,-99.9,0,0,100,30.24,30.03,0,-999,0,0.00
2013-2-27,70.3,67.4,63.0,-99.9,-99.9,-99.9,0,0,100,30.04,29.46,0,-999,0,0.00
2013-2-28,69.7,67.7,64.1,-99.9,-99.9,-99.9,0,0,100,29.56,29.41,0,-999,0,0.00
2013-3-1,70.5,67.8,64.5,-99.9,-99.9,-99.9,0,0,100,29.57,29.40,0,-999,0,0.00
2013-3-2,69.1,65.5,63.2,-99.9,-99.9,-99.9,0,0,100,29.58,29.52,0,-999,0,0.00
2013-3-3,63.2,62.2,61.4,-99.9,-99.9,-99.9,0,0,100,29.54,29.47,0,-999,0,0.00
2013-3-4,70.2,66.6,61.0,-99.9,-99.9,-99.9,0,0,100,29.61,29.46,0,-999,0,0.00
2013-3-5,70.3,67.2,63.1,-99.9,-99.9,-99.9,0,0,100,29.96,29.61,0,-999,0,0.00
2013-3-6,70.3,67.2,63.4,-99.9,-99.9,-99.9,0,0,100,29.96,29.83,0,-999,0,0.00
2013-3-7,69.3,66.4,62.5,-99.9,-99.9,-99.9,0,0,100,29.83,29.76,0,-999,0,0.00
2013-3-8,68.7,65.7,61.1,-99.9,-99.9,-99.9,0,0,100,29.97,29.73,0,-999,0,0.00
2013-3-9,62.7,60.9,60.3,-99.9,-99.9,-99.9,0,0,100,30.22,29.95,0,-999,0,0.00
2013-3-10,60.9,60.6,60.2,-99.9,-99.9,-99.9,0,0,100,30.30,30.21,0,-999,0,0.00
2013-3-11,69.9,66.2,60.5,-99.9,-99.9,-99.9,0,0,100,30.25,30.08,0,-999,0,0.00
2013-3-12,70.4,67.6,63.4,-99.9,-99.9,-99.9,0,0,100,30.09,29.66,0,-999,0,0.00
2013-3-13,70.6,68.6,65.8,-99.9,-99.9,-99.9,0,0,100,29.69,29.58,0,-999,0,0.00
2013-3-14,69.3,67.0,64.5,-99.9,-99.9,-99.9,0,0,100,29.70,29.66,0,-999,0,0.00
2013-4-27,69.9,68.6,66.9,45.4,43.4,42.3,41,40,38,30.30,30.21,0,0,0,0.00
2013-4-28,69.3,67.9,65.5,43.7,42.3,39.8,40,39,38,30.24,30.16,0,0,0,0.00
2013-4-29,74.6,71.3,66.3,47.9,45.1,42.0,41,39,35,30.19,30.13,0,0,0,0.00
2013-4-30,75.3,72.2,67.2,45.9,43.6,40.5,39,35,31,30.25,30.15,0,0,0,0.00
2013-5-1,75.3,72.4,67.8,46.6,43.6,38.9,38,35,30,30.36,30.25,0,0,0,0.00
2013-5-2,75.4,72.3,68.1,47.8,44.9,41.3,38,37,33,30.35,30.26,0,0,0,0.00
2013-5-3,74.5,71.6,68.1,46.9,44.3,-99.9,38,37,32,30.37,30.23,0,-2,7,0.00
2013-5-4,69.2,67.8,66.6,43.0,41.4,40.1,38,38,37,30.24,30.19,0,0,0,0.00
2013-5-5,67.6,66.4,64.6,41.6,40.0,37.9,39,37,36,30.19,30.14,0,0,0,0.00
2013-5-6,75.5,71.1,65.8,50.0,45.2,40.5,43,39,34,30.18,30.06,0,0,0,0.00
2013-5-7,75.7,72.6,68.6,54.4,50.1,45.7,49,44,40,30.08,30.02,0,0,0,0.00
2013-5-8,75.4,73.5,71.2,55.7,53.6,51.6,52,49,47,30.09,29.94,0,0,0,0.00
2013-5-9,75.1,73.1,71.7,57.0,54.4,53.2,54,51,50,29.94,29.77,0,0,0,0.00
2013-5-10,74.5,72.8,71.4,54.4,53.7,52.7,53,51,49,29.87,29.78,0,0,0,0.00
2013-5-11,73.1,71.8,71.4,56.3,54.4,53.2,58,54,50,29.85,29.62,0,0,0,0.00
2013-5-12,71.5,71.0,70.4,56.2,55.6,54.0,59,58,56,29.71,29.50,0,0,0,0.00
2013-5-13,73.4,71.2,68.3,54.1,50.5,47.8,56,48,42,29.90,29.71,0,0,0,0.00
2013-5-14,74.0,71.3,68.7,48.3,46.8,45.0,43,41,39,29.94,29.86,0,0,0,0.00
2013-5-15,73.9,71.2,67.9,49.9,46.5,42.4,44,41,36,29.96,29.59,0,0,0,0.00
2013-5-16,75.0,72.4,70.0,53.5,50.6,48.1,50,46,43,29.68,29.55,0,0,0,0.00
2013-5-17,73.9,72.4,70.6,51.4,49.7,48.0,46,44,42,30.12,29.68,0,0,0,0.00
2013-5-18,72.2,71.0,69.0,48.8,47.6,45.6,45,43,41,30.20,30.11,0,0,0,0.00
2013-5-19,72.5,71.1,69.3,50.1,49.0,47.6,46,45,44,30.25,30.14,0,0,0,0.00
2013-5-20,74.4,72.3,70.4,56.6,53.3,49.8,55,51,46,30.14,29.83,0,0,0,0.00
2013-5-21,74.9,73.1,71.5,57.3,55.6,54.0,58,54,52,29.86,29.77,0,0,0,0.00
2013-5-22,73.7,72.7,71.8,55.7,54.8,54.1,53,53,53,29.88,29.81,0,0,0,0.00
2013-5-23,73.4,72.5,71.7,56.8,56.0,54.9,57,56,53,29.85,29.82,0,0,0,0.00
2013-9-15,-200.0,0.0,200.0,-99.9,-99.9,-99.9,0,0,100,0.00,40.00,0,-999,0,0.00
2013-9-18,-200.0,0.0,200.0,-99.9,-99.9,-99.9,0,0,100,0.00,40.00,0,-999,0,0.00
2013-9-26,-200.0,0.0,200.0,-99.9,-99.9,-99.9,0,0,100,0.00,40.00,0,-999,0,0.00
2013-9-29,-200.0,0.0,200.0,-99.9,-99.9,-99.9,0,0,100,0.00,40.00,0,-999,0,0.00
2013-9-30,-200.0,0.0,200.0,-99.9,-99.9,-99.9,0,0,100,0.00,40.00,0,-999,0,0.00
2013-10-1,-200.0,0.0,200.0,-99.9,-99.9,-99.9,0,0,100,0.00,40.00,0,-999,0,0.00
2013-10-7,-200.0,0.0,200.0,-99.9,-99.9,-99.9,0,0,100,0.00,40.00,0,-999,0,0.00
2013-10-8,-200.0,0.0,200.0,-99.9,-99.9,-99.9,0,0,100,0.00,40.00,0,-999,0,0.00
2013-11-1,-200.0,0.0,200.0,-99.9,-99.9,-99.9,0,0,100,0.00,40.00,0,-999,0,0.00
2013-11-3,-200.0,0.0,200.0,-99.9,-99.9,-99.9,0,0,100,0.00,40.00,0,-999,0,0.00
2013-11-4,-200.0,0.0,200.0,-99.9,-99.9,-99.9,0,0,100,0.00,40.00,0,-999,0,0.00
2013-11-13,-200.0,0.0,200.0,-99.9,-99.9,-99.9,0,0,100,0.00,40.00,0,-999,0,0.00
2013-12-5,-200.0,0.0,200.0,-99.9,-99.9,-99.9,0,0,100,0.00,40.00,0,-999,0,0.00
2013-12-6,-200.0,0.0,200.0,-99.9,-99.9,-99.9,0,0,100,0.00,40.00,0,-999,0,0.00
2013-12-9,-200.0,0.0,200.0,-99.9,-99.9,-99.9,0,0,100,0.00,40.00,0,-999,0,0.00